Impacts METAR Board INFO
IDs:

KSFO - San Francisco Intl, CA, US

Updated at: 0244 UTC 15 Dec 2017
Potential Impact None Slight Moderate High
Time14/14Z 14/15Z 14/16Z 14/17Z 14/18Z 14/19Z 14/20Z 14/21Z 14/22Z 14/23Z 15/00Z 15/01Z 15/02Z
VIS10 10 9 8 9 9 9 9 9 10 10 10 10
CIG-- -- -- -- -- -- -- -- -- -- -- -- --
CoverFEWFEWFEWFEWFEWFEWCLRCLRFEWSCTSCTSCTFEW
FltCatVFRVFRVFRVFRVFRVFRVFRVFRVFRVFRVFRVFRVFR
WX--------------------------
WDir000005030360400340350270
WSpd0 0 0 0 0 4 3 4 3 0 4 6 7
WGst-- -- -- -- -- -- -- -- -- -- -- -- --
Raw hourly METARs
KSFO 141356Z 00000KT 10SM FEW200 07/04 A3007 RMK AO2 SLP182 T00720044
KSFO 141456Z 00000KT 10SM FEW200 07/06 A3009 RMK AO2 SLP187 T00720056 53012
KSFO 141556Z 00000KT 9SM FEW200 08/07 A3010 RMK AO2 SLP192 T00830067
KSFO 141656Z 00000KT 8SM FEW200 11/08 A3012 RMK AO2 SLP200 T01110083
KSFO 141756Z 00000KT 9SM FEW200 12/08 A3013 RMK AO2 SLP203 T01170083 10117 20061 51016
KSFO 141856Z 05004KT 9SM FEW200 12/08 A3012 RMK AO2 SLP200 T01220083
KSFO 141956Z 03003KT 9SM CLR 13/08 A3011 RMK AO2 SLP194 T01330083
KSFO 142056Z 36004KT 9SM CLR 14/09 A3009 RMK AO2 SLP190 T01390094 58013
KSFO 142156Z 04003KT 9SM FEW200 14/09 A3008 RMK AO2 SLP187 T01440089
KSFO 142256Z 00000KT 10SM SCT200 17/08 A3008 RMK AO2 SLP186 T01670083
KSFO 142356Z 34004KT 10SM SCT200 17/06 A3008 RMK AO2 SLP186 T01720056 10178 20117 56005
KSFO 150056Z 35006KT 10SM SCT200 18/02 A3009 RMK AO2 SLP189 T01780017
KSFO 150156Z 27007KT 10SM FEW200 13/06 A3011 RMK AO2 SLP194 T01330061